createdAt,value
2023-03-11T00:00:49.004Z,10.10
2023-03-11T00:03:29.176Z,10.70
2023-03-11T00:06:02.306Z,9.60
2023-03-11T00:08:31.308Z,8.80
2023-03-11T00:11:00.758Z,9.80
2023-03-11T00:13:30.595Z,9.40
2023-03-11T00:16:01.120Z,9.00
2023-03-11T00:18:31.721Z,9.40
2023-03-11T00:21:01.372Z,9.00
2023-03-11T00:23:30.537Z,9.60
2023-03-11T00:26:01.324Z,8.10
2023-03-11T00:28:29.496Z,9.40
2023-03-11T00:30:57.601Z,8.60
2023-03-11T00:33:25.828Z,8.80
2023-03-11T00:35:53.795Z,8.80
2023-03-11T00:38:22.314Z,9.50
2023-03-11T00:40:50.700Z,9.90
2023-03-11T00:43:19.484Z,9.40
2023-03-11T00:45:48.010Z,7.90
2023-03-11T00:48:16.407Z,9.30
2023-03-11T00:50:44.598Z,8.40
2023-03-11T00:53:13.287Z,9.70
2023-03-11T00:55:41.762Z,7.80
2023-03-11T00:58:13.318Z,8.80
2023-03-11T01:00:45.267Z,8.30
2023-03-11T01:03:13.133Z,9.50
2023-03-11T01:05:41.242Z,9.30
2023-03-11T01:08:09.241Z,8.20
2023-03-11T01:10:38.520Z,9.20
2023-03-11T01:13:06.559Z,8.50
2023-03-11T01:15:38.561Z,8.90
2023-03-11T01:18:07.223Z,8.80
2023-03-11T01:20:38.195Z,10.70
2023-03-11T01:23:07.977Z,8.60
2023-03-11T01:25:37.244Z,8.90
2023-03-11T01:28:08.457Z,9.30
2023-03-11T01:30:40.053Z,8.70
2023-03-11T01:33:13.543Z,8.40
2023-03-11T01:35:42.474Z,9.00
2023-03-11T01:38:11.842Z,7.50
2023-03-11T01:40:47.806Z,8.10
2023-03-11T01:43:41.115Z,8.60
2023-03-11T01:46:18.723Z,8.30
2023-03-11T01:48:50.306Z,8.90
2023-03-11T01:51:30.555Z,9.40
2023-03-11T01:54:06.835Z,9.00
2023-03-11T01:56:36.126Z,9.00
2023-03-11T01:59:08.211Z,8.40
2023-03-11T02:01:49.956Z,8.90
2023-03-11T02:04:20.081Z,7.90
2023-03-11T02:06:51.409Z,9.00
2023-03-11T02:09:22.421Z,8.20
2023-03-11T02:11:54.567Z,8.30
2023-03-11T02:14:25.712Z,9.40
2023-03-11T02:16:55.923Z,8.10
2023-03-11T02:19:42.442Z,8.80
2023-03-11T02:22:13.670Z,8.70
2023-03-11T02:25:00.643Z,8.10
2023-03-11T02:27:34.669Z,8.60
2023-03-11T02:30:05.477Z,8.20
2023-03-11T02:32:35.800Z,8.80
2023-03-11T02:35:05.999Z,8.90
2023-03-11T02:37:34.175Z,7.60
2023-03-11T02:40:55.941Z,7.60
2023-03-11T02:43:45.242Z,8.50
2023-03-11T02:46:15.243Z,8.90
2023-03-11T02:48:43.972Z,8.30
2023-03-11T02:51:13.378Z,8.40
2023-03-11T02:53:50.646Z,8.50
2023-03-11T02:56:19.251Z,8.00
2023-03-11T02:58:47.210Z,8.60
2023-03-11T03:01:15.760Z,7.10
2023-03-11T03:03:45.443Z,7.70
2023-03-11T03:06:13.786Z,9.20
2023-03-11T03:08:42.169Z,8.30
2023-03-11T03:11:10.131Z,8.60
2023-03-11T03:13:38.153Z,9.30
2023-03-11T03:16:07.451Z,8.30
2023-03-11T03:18:36.072Z,8.00
2023-03-11T03:21:05.210Z,8.00
2023-03-11T03:23:35.417Z,9.00
2023-03-11T03:26:06.328Z,7.20
2023-03-11T03:28:36.985Z,8.20
2023-03-11T03:31:08.891Z,7.70
2023-03-11T03:33:37.635Z,8.40
2023-03-11T03:36:14.139Z,8.50
2023-03-11T03:38:45.594Z,8.40
2023-03-11T03:41:15.832Z,7.40
2023-03-11T03:43:43.984Z,8.20
2023-03-11T03:46:12.165Z,8.70
2023-03-11T03:48:43.719Z,7.90
2023-03-11T03:51:14.528Z,8.70
2023-03-11T03:54:05.779Z,8.20
2023-03-11T03:56:34.034Z,7.90
2023-03-11T03:59:02.271Z,8.30
2023-03-11T04:01:36.018Z,7.50
2023-03-11T04:04:05.286Z,7.20
2023-03-11T04:06:34.379Z,7.20
2023-03-11T04:09:05.226Z,9.60
2023-03-11T04:11:35.391Z,7.70
2023-03-11T04:14:06.233Z,7.60
2023-03-11T04:16:37.091Z,7.60
2023-03-11T04:19:08.756Z,8.30
2023-03-11T04:21:36.933Z,8.20
2023-03-11T04:24:06.152Z,7.80
2023-03-11T04:26:37.080Z,7.40
2023-03-11T04:29:05.877Z,7.30
2023-03-11T04:31:38.221Z,7.40
2023-03-11T04:34:07.586Z,7.40
2023-03-11T04:36:36.525Z,8.40
2023-03-11T04:39:05.719Z,8.40
2023-03-11T04:41:37.972Z,7.40
2023-03-11T04:44:06.756Z,8.80
2023-03-11T04:46:35.312Z,8.50
2023-03-11T04:49:03.756Z,7.60
2023-03-11T04:51:31.904Z,9.10
2023-03-11T04:54:00.179Z,8.40
2023-03-11T04:56:29.338Z,8.10
2023-03-11T04:58:57.583Z,8.20
2023-03-11T05:01:27.713Z,7.90
2023-03-11T05:03:55.972Z,8.20
2023-03-11T05:06:24.136Z,7.80
2023-03-11T05:08:52.507Z,8.10
2023-03-11T05:11:20.908Z,10.40
2023-03-11T05:13:49.047Z,15.40
2023-03-11T05:16:17.491Z,14.90
2023-03-11T05:18:45.537Z,14.80
2023-03-11T05:21:15.252Z,14.90
2023-03-11T05:23:45.261Z,13.30
2023-03-11T05:26:14.058Z,12.10
2023-03-11T05:28:43.554Z,14.20
2023-03-11T05:31:12.115Z,12.40
2023-03-11T05:33:41.098Z,13.60
2023-03-11T05:36:12.085Z,13.00
2023-03-11T05:38:42.400Z,13.90
2023-03-11T05:41:10.677Z,13.80
2023-03-11T05:43:39.361Z,11.40
2023-03-11T05:46:07.483Z,11.50
2023-03-11T05:48:36.636Z,12.80
2023-03-11T05:51:10.498Z,12.10
2023-03-11T05:53:43.656Z,11.80
2023-03-11T05:56:11.801Z,11.90
2023-03-11T05:58:40.901Z,10.70
2023-03-11T06:01:15.564Z,11.90
2023-03-11T06:03:44.691Z,11.50
2023-03-11T06:06:14.843Z,10.10
2023-03-11T06:08:49.554Z,11.50
2023-03-11T06:11:19.697Z,10.70
2023-03-11T06:13:48.278Z,11.00
2023-03-11T06:16:16.621Z,11.40
2023-03-11T06:18:44.663Z,10.70
2023-03-11T06:21:23.056Z,10.70
2023-03-11T06:23:51.454Z,11.20
2023-03-11T06:26:22.592Z,10.10
2023-03-11T06:28:52.784Z,11.10
2023-03-11T06:31:27.903Z,12.30
2023-03-11T06:33:59.572Z,12.60
2023-03-11T06:36:28.039Z,10.70
2023-03-11T06:38:56.029Z,11.10
2023-03-11T06:41:25.914Z,10.90
2023-03-11T06:43:54.220Z,10.20
2023-03-11T06:46:23.952Z,10.00
2023-03-11T06:48:53.432Z,9.30
2023-03-11T06:51:22.609Z,9.90
2023-03-11T06:53:54.827Z,9.80
2023-03-11T06:56:24.656Z,9.70
2023-03-11T06:58:59.248Z,10.90
2023-03-11T07:01:29.346Z,9.90
2023-03-11T07:03:58.167Z,9.70
2023-03-11T07:06:29.165Z,9.00
2023-03-11T07:09:04.914Z,8.60
2023-03-11T07:11:34.819Z,9.60
2023-03-11T07:14:08.745Z,9.00
2023-03-11T07:16:40.421Z,8.80
2023-03-11T07:19:17.683Z,9.80
2023-03-11T07:21:46.245Z,9.80
2023-03-11T07:24:15.211Z,8.00
2023-03-11T07:26:44.556Z,8.50
2023-03-11T07:29:12.781Z,8.20
2023-03-11T07:31:41.813Z,7.80
2023-03-11T07:34:12.912Z,7.50
2023-03-11T07:36:43.222Z,8.30
2023-03-11T07:39:18.895Z,7.90
2023-03-11T07:41:47.361Z,7.30
2023-03-11T07:44:17.172Z,7.90
2023-03-11T07:46:46.096Z,7.30
2023-03-11T07:49:17.052Z,7.70
2023-03-11T07:51:45.220Z,6.20
2023-03-11T07:54:13.869Z,7.80
2023-03-11T07:56:42.265Z,6.70
2023-03-11T07:59:10.264Z,6.20
2023-03-11T08:01:41.478Z,5.90
2023-03-11T08:04:14.359Z,5.90
2023-03-11T08:06:47.404Z,6.60
2023-03-11T08:09:16.106Z,6.30
2023-03-11T08:11:44.071Z,6.60
2023-03-11T08:14:12.040Z,6.00
2023-03-11T08:16:41.399Z,5.80
2023-03-11T08:19:13.679Z,5.50
2023-03-11T08:21:44.035Z,6.00
2023-03-11T08:24:14.476Z,6.00
2023-03-11T08:26:42.451Z,4.90
2023-03-11T08:29:10.721Z,5.60
2023-03-11T08:31:39.179Z,4.90
2023-03-11T08:34:10.967Z,5.20
2023-03-11T08:36:39.551Z,5.50
2023-03-11T08:39:08.201Z,4.90
2023-03-11T08:41:36.531Z,5.00
2023-03-11T08:44:05.878Z,5.40
2023-03-11T08:46:38.821Z,4.70
2023-03-11T08:49:07.708Z,5.10
2023-03-11T08:51:37.199Z,5.00
2023-03-11T08:54:06.512Z,4.90
2023-03-11T08:56:34.566Z,4.60
2023-03-11T08:59:02.815Z,3.80
2023-03-11T09:01:31.325Z,3.90
2023-03-11T09:03:59.496Z,5.20
2023-03-11T09:06:30.575Z,4.10
2023-03-11T09:08:58.893Z,4.80
2023-03-11T09:11:27.292Z,3.60
2023-03-11T09:13:55.699Z,4.00
2023-03-11T09:16:24.383Z,3.70
2023-03-11T09:18:53.111Z,3.60
2023-03-11T09:21:22.049Z,3.80
2023-03-11T09:23:50.122Z,3.80
2023-03-11T09:26:18.395Z,3.80
2023-03-11T09:28:49.401Z,3.50
2023-03-11T09:31:19.008Z,3.50
2023-03-11T09:33:48.321Z,3.50
2023-03-11T09:36:21.026Z,3.40
2023-03-11T09:38:49.460Z,3.80
2023-03-11T09:41:25.764Z,4.20
2023-03-11T09:44:35.923Z,4.40
2023-03-11T09:47:41.006Z,3.40
2023-03-11T09:50:18.406Z,4.10
2023-03-11T09:53:26.965Z,3.10
2023-03-11T09:56:01.454Z,4.80
2023-03-11T09:58:47.869Z,4.50
2023-03-11T10:01:22.480Z,4.60
2023-03-11T10:06:30.091Z,4.40
2023-03-11T10:09:19.609Z,4.80
2023-03-11T10:11:53.651Z,4.60
2023-03-11T10:14:40.648Z,4.70
2023-03-11T10:17:18.453Z,5.00
2023-03-11T10:20:48.445Z,5.50
2023-03-11T10:24:04.445Z,5.00
2023-03-11T10:26:55.059Z,4.30
2023-03-11T10:29:30.941Z,4.10
2023-03-11T10:32:34.457Z,5.10
2023-03-11T10:35:27.533Z,4.20
2023-03-11T10:38:05.746Z,4.10
2023-03-11T10:40:42.917Z,4.30
2023-03-11T10:43:18.197Z,4.00
2023-03-11T10:45:49.619Z,4.00
2023-03-11T10:48:20.500Z,4.50
2023-03-11T10:51:04.342Z,3.90
2023-03-11T10:53:32.427Z,6.70
2023-03-11T10:56:00.385Z,4.90
2023-03-11T10:58:31.022Z,4.00
2023-03-11T11:01:17.654Z,3.90
2023-03-11T11:03:50.372Z,5.40
2023-03-11T11:06:30.637Z,4.40
2023-03-11T11:09:32.741Z,4.20
2023-03-11T11:12:15.549Z,3.70
2023-03-11T11:14:52.848Z,3.20
2023-03-11T11:17:34.418Z,5.10
2023-03-11T11:20:13.712Z,4.60
2023-03-11T11:22:51.255Z,3.90
2023-03-11T11:25:27.016Z,3.70
2023-03-11T11:27:59.740Z,4.20
2023-03-11T11:30:29.280Z,3.70
2023-03-11T11:33:24.215Z,3.60
2023-03-11T11:35:57.721Z,4.80
2023-03-11T11:38:29.520Z,4.30
2023-03-11T11:41:03.782Z,4.30
2023-03-11T11:43:50.286Z,5.20
2023-03-11T11:46:36.111Z,3.80
2023-03-11T11:49:33.514Z,3.50
2023-03-11T11:52:24.529Z,4.00
2023-03-11T11:55:19.330Z,4.20
2023-03-11T11:57:48.229Z,4.00
2023-03-11T12:00:25.949Z,3.50
2023-03-11T12:03:32.231Z,4.90
2023-03-11T12:06:32.325Z,3.10
2023-03-11T12:09:38.752Z,3.30
2023-03-11T12:12:36.564Z,3.60
2023-03-11T12:15:18.455Z,3.30
2023-03-11T12:17:50.191Z,3.70
2023-03-11T12:20:46.028Z,4.30
2023-03-11T12:23:37.414Z,3.30
2023-03-11T12:26:22.521Z,5.20
2023-03-11T12:29:13.792Z,3.50
2023-03-11T12:31:45.558Z,3.90
2023-03-11T12:34:19.703Z,4.70
2023-03-11T12:36:49.869Z,4.00
2023-03-11T12:39:24.054Z,3.80
2023-03-11T12:42:10.978Z,3.90
2023-03-11T12:44:40.824Z,4.30
2023-03-11T12:47:08.956Z,4.40
2023-03-11T12:49:44.228Z,3.90
2023-03-11T12:52:12.169Z,3.90
2023-03-11T12:54:45.275Z,4.40
2023-03-11T12:57:16.389Z,4.00
2023-03-11T13:00:27.136Z,4.30
2023-03-11T13:03:12.598Z,4.20
2023-03-11T13:05:49.362Z,4.00
2023-03-11T13:08:46.776Z,4.00
2023-03-11T13:11:32.991Z,4.20
2023-03-11T13:14:30.237Z,4.40
2023-03-11T13:17:31.019Z,5.70
2023-03-11T13:19:59.887Z,4.30
2023-03-11T13:22:43.980Z,5.10
2023-03-11T13:25:43.430Z,5.10
2023-03-11T13:28:25.201Z,5.20
2023-03-11T13:31:20.354Z,4.00
2023-03-11T13:33:52.674Z,5.10
2023-03-11T13:37:13.911Z,4.40
2023-03-11T13:40:20.274Z,4.00
2023-03-11T13:42:51.713Z,4.10
2023-03-11T13:45:29.206Z,4.00
2023-03-11T13:48:04.985Z,5.00
2023-03-11T13:50:41.810Z,4.00
2023-03-11T13:53:28.854Z,4.60
2023-03-11T13:55:56.893Z,4.60
2023-03-11T13:58:27.581Z,4.40
2023-03-11T14:01:02.112Z,3.90
2023-03-11T14:03:41.169Z,4.30
2023-03-11T14:06:19.808Z,4.70
2023-03-11T14:08:57.774Z,4.70
2023-03-11T14:11:29.630Z,4.00
2023-03-11T14:13:58.496Z,4.20
2023-03-11T14:16:36.196Z,3.50
2023-03-11T14:19:18.652Z,4.10
2023-03-11T14:21:55.504Z,3.30
2023-03-11T14:24:29.444Z,3.80
2023-03-11T14:27:02.801Z,3.60
2023-03-11T14:29:39.432Z,4.00
2023-03-11T14:32:31.247Z,4.30
2023-03-11T14:35:01.315Z,3.60
2023-03-11T14:37:36.492Z,4.20
2023-03-11T14:40:26.426Z,4.30
2023-03-11T14:43:00.407Z,3.90
2023-03-11T14:45:37.438Z,3.70
2023-03-11T14:48:35.643Z,3.30
2023-03-11T14:51:10.823Z,4.50
2023-03-11T14:53:52.936Z,4.30
2023-03-11T14:56:27.216Z,3.50
2023-03-11T14:59:19.603Z,3.00
2023-03-11T15:01:49.737Z,4.40
2023-03-11T15:04:34.265Z,3.30
2023-03-11T15:07:05.442Z,3.90
2023-03-11T15:09:41.300Z,4.30
2023-03-11T15:15:00.560Z,5.10
2023-03-11T15:17:37.803Z,5.20
2023-03-11T15:20:28.376Z,6.40
2023-03-11T15:23:06.392Z,7.00
2023-03-11T15:25:38.812Z,6.80
2023-03-11T15:28:39.081Z,6.90
2023-03-11T15:31:37.847Z,5.70
2023-03-11T15:34:28.807Z,6.40
2023-03-11T15:37:03.957Z,6.70
2023-03-11T15:39:32.273Z,7.20
2023-03-11T15:42:02.260Z,6.10
2023-03-11T15:44:41.635Z,6.10
2023-03-11T15:47:16.941Z,5.80
2023-03-11T15:49:45.878Z,6.10
2023-03-11T15:52:16.667Z,6.00
2023-03-11T15:54:54.683Z,5.20
2023-03-11T15:57:29.987Z,5.90
2023-03-11T16:00:00.978Z,10.00
2023-03-11T16:02:32.103Z,5.00
2023-03-11T16:05:00.917Z,5.30
2023-03-11T16:07:39.072Z,7.80
2023-03-11T16:10:11.199Z,4.70
2023-03-11T16:12:39.970Z,4.90
2023-03-11T16:15:28.984Z,4.70
2023-03-11T16:18:04.285Z,5.00
2023-03-11T16:20:48.017Z,4.30
2023-03-11T16:23:22.350Z,3.80
2023-03-11T16:25:55.961Z,3.30
2023-03-11T16:28:23.848Z,3.60
2023-03-11T16:30:53.248Z,5.50
2023-03-11T16:33:21.340Z,5.10
2023-03-11T16:35:49.912Z,4.40
2023-03-11T16:38:23.459Z,2.80
2023-03-11T16:41:02.795Z,4.50
2023-03-11T16:43:32.486Z,4.60
2023-03-11T16:46:00.491Z,4.50
2023-03-11T16:48:28.713Z,3.60
2023-03-11T16:50:56.723Z,4.20
2023-03-11T16:53:26.351Z,4.70
2023-03-11T16:55:54.505Z,4.20
2023-03-11T16:58:23.043Z,4.40
2023-03-11T17:00:51.265Z,3.30
2023-03-11T17:03:21.858Z,4.40
2023-03-11T17:05:50.483Z,3.90
2023-03-11T17:08:18.539Z,3.90
2023-03-11T17:10:47.140Z,4.60
2023-03-11T17:13:17.144Z,4.10
2023-03-11T17:16:00.992Z,3.90
2023-03-11T17:18:29.487Z,3.60
2023-03-11T17:20:57.445Z,3.40
2023-03-11T17:23:25.752Z,4.80
2023-03-11T17:25:55.308Z,2.70
2023-03-11T17:28:24.520Z,3.30
2023-03-11T17:30:55.377Z,4.00
2023-03-11T17:33:25.754Z,3.10
2023-03-11T17:36:08.872Z,2.90
2023-03-11T17:38:38.954Z,3.70
2023-03-11T17:41:17.866Z,3.50
2023-03-11T17:43:48.641Z,4.00
2023-03-11T17:46:20.671Z,3.80
2023-03-11T17:48:51.869Z,4.40
2023-03-11T17:51:24.119Z,3.50
2023-03-11T17:53:55.920Z,4.20
2023-03-11T17:56:24.415Z,4.40
2023-03-11T17:58:53.422Z,4.40
2023-03-11T18:01:25.547Z,3.00
2023-03-11T18:03:54.406Z,3.50
2023-03-11T18:06:23.986Z,3.60
2023-03-11T18:08:52.928Z,5.30
2023-03-11T18:11:26.383Z,3.00
2023-03-11T18:13:54.948Z,4.40
2023-03-11T18:16:28.642Z,3.60
2023-03-11T18:18:57.717Z,5.30
2023-03-11T18:21:29.407Z,4.20
2023-03-11T18:24:00.426Z,3.90
2023-03-11T18:26:30.659Z,4.20
2023-03-11T18:29:00.638Z,4.20
2023-03-11T18:31:31.008Z,4.70
2023-03-11T18:34:03.052Z,3.90
2023-03-11T18:36:42.727Z,4.20
2023-03-11T18:39:12.674Z,3.70
2023-03-11T18:41:42.398Z,4.30
2023-03-11T18:44:11.520Z,4.60
2023-03-11T18:46:41.569Z,4.10
2023-03-11T18:49:14.326Z,3.90
2023-03-11T18:51:42.425Z,3.70
2023-03-11T18:54:10.628Z,4.80
2023-03-11T18:56:40.008Z,3.90
2023-03-11T18:59:10.731Z,4.70
2023-03-11T19:01:38.884Z,3.90
2023-03-11T19:04:07.178Z,5.20
2023-03-11T19:06:35.593Z,4.80
2023-03-11T19:09:06.231Z,3.70
2023-03-11T19:11:34.435Z,4.20
2023-03-11T19:14:02.960Z,4.30
2023-03-11T19:16:31.242Z,4.60
2023-03-11T19:19:00.526Z,4.90
2023-03-11T19:21:28.661Z,4.50
2023-03-11T19:23:57.853Z,5.40
2023-03-11T19:26:43.627Z,4.20
2023-03-11T19:29:15.254Z,4.60
2023-03-11T19:31:46.211Z,4.70
2023-03-11T19:34:14.501Z,4.70
2023-03-11T19:36:42.539Z,5.50
2023-03-11T19:39:10.739Z,4.20
2023-03-11T19:41:39.308Z,4.70
2023-03-11T19:44:08.298Z,5.50
2023-03-11T19:46:36.687Z,4.90
2023-03-11T19:49:04.961Z,5.00
2023-03-11T19:51:48.728Z,4.50
2023-03-11T19:54:20.020Z,4.70
2023-03-11T19:56:48.786Z,4.00
2023-03-11T19:59:17.433Z,5.40
2023-03-11T20:01:46.297Z,4.20
2023-03-11T20:04:15.480Z,5.30
2023-03-11T20:06:45.357Z,3.90
2023-03-11T20:09:16.431Z,5.00
2023-03-11T20:11:47.771Z,5.20
2023-03-11T20:14:16.577Z,4.70
2023-03-11T20:16:44.652Z,4.40
2023-03-11T20:19:12.889Z,4.50
2023-03-11T20:21:42.054Z,4.50
2023-03-11T20:24:11.237Z,3.80
2023-03-11T20:26:39.321Z,5.60
2023-03-11T20:29:07.466Z,4.10
2023-03-11T20:31:36.702Z,4.20
2023-03-11T20:34:05.390Z,4.90
2023-03-11T20:36:34.830Z,3.50
2023-03-11T20:39:09.447Z,3.80
2023-03-11T20:41:40.952Z,3.90
2023-03-11T20:44:13.369Z,4.10
2023-03-11T20:46:42.690Z,4.00
2023-03-11T20:49:14.132Z,3.80
2023-03-11T20:51:44.122Z,3.90
2023-03-11T20:54:12.486Z,5.00
2023-03-11T20:56:42.307Z,4.30
2023-03-11T20:59:14.261Z,4.80
2023-03-11T21:01:43.376Z,4.10
2023-03-11T21:04:12.249Z,3.60
2023-03-11T21:06:41.429Z,5.30
2023-03-11T21:09:14.941Z,5.30
2023-03-11T21:11:43.591Z,5.30
2023-03-11T21:14:19.164Z,4.40
2023-03-11T21:16:48.718Z,3.90
2023-03-11T21:19:17.446Z,3.80
2023-03-11T21:21:46.077Z,5.10
2023-03-11T21:24:15.537Z,4.00
2023-03-11T21:26:44.186Z,3.30
2023-03-11T21:29:16.496Z,3.60
2023-03-11T21:31:46.766Z,4.50
2023-03-11T21:34:15.222Z,3.60
2023-03-11T21:36:44.158Z,5.90
2023-03-11T21:39:13.288Z,5.70
2023-03-11T21:41:41.693Z,3.70
2023-03-11T21:44:10.102Z,2.70
2023-03-11T21:46:39.247Z,4.00
2023-03-11T21:49:07.746Z,4.10
2023-03-11T21:51:40.531Z,5.20
2023-03-11T21:54:11.806Z,7.00
2023-03-11T21:56:40.963Z,4.50
2023-03-11T21:59:10.128Z,4.70
2023-03-11T22:01:38.766Z,4.90
2023-03-11T22:04:08.856Z,3.70
2023-03-11T22:06:38.301Z,3.10
2023-03-11T22:09:07.453Z,4.50
2023-03-11T22:11:35.665Z,3.70
2023-03-11T22:14:04.087Z,4.10
2023-03-11T22:16:33.812Z,10.70
2023-03-11T22:19:05.505Z,4.90
2023-03-11T22:21:34.184Z,5.30
2023-03-11T22:24:06.318Z,5.70
2023-03-11T22:26:34.919Z,4.60
2023-03-11T22:29:04.235Z,3.60
2023-03-11T22:31:33.015Z,95.50
2023-03-11T22:34:01.596Z,62.30
2023-03-11T22:36:30.378Z,75.10
2023-03-11T22:38:59.067Z,47.00
2023-03-11T22:41:27.849Z,38.40
2023-03-11T22:43:56.855Z,39.20
2023-03-11T22:46:26.807Z,25.70
2023-03-11T22:48:59.589Z,43.10
2023-03-11T22:51:28.235Z,34.80
2023-03-11T22:53:59.381Z,30.70
2023-03-11T22:56:28.162Z,17.20
2023-03-11T22:58:56.877Z,19.40
2023-03-11T23:01:26.084Z,22.70
2023-03-11T23:03:55.603Z,12.00
2023-03-11T23:06:24.866Z,15.10
2023-03-11T23:08:54.420Z,9.60
2023-03-11T23:11:23.865Z,4.80
2023-03-11T23:13:52.656Z,6.00
2023-03-11T23:16:23.240Z,6.90
2023-03-11T23:18:55.005Z,7.40
2023-03-11T23:21:32.333Z,5.80
2023-03-11T23:24:05.427Z,8.70
2023-03-11T23:26:35.473Z,6.70
2023-03-11T23:29:05.472Z,7.80
2023-03-11T23:31:34.143Z,7.80
2023-03-11T23:34:02.721Z,6.00
2023-03-11T23:36:31.414Z,7.40
2023-03-11T23:39:00.312Z,4.70
2023-03-11T23:41:29.450Z,4.50
2023-03-11T23:43:58.344Z,5.20
2023-03-11T23:46:27.456Z,4.90
2023-03-11T23:48:55.883Z,6.50
2023-03-11T23:51:24.456Z,5.10
2023-03-11T23:53:52.831Z,4.70
2023-03-11T23:56:21.618Z,6.10
2023-03-11T23:58:50.102Z,6.00
